createdAt,value
2022-12-01T00:00:23.572Z,44.28
2022-12-01T00:02:50.483Z,44.30
2022-12-01T00:05:17.161Z,43.57
2022-12-01T00:07:43.711Z,43.90
2022-12-01T00:10:26.596Z,45.66
2022-12-01T00:12:54.055Z,45.92
2022-12-01T00:15:21.006Z,45.74
2022-12-01T00:17:48.926Z,45.61
2022-12-01T00:20:16.569Z,46.14
2022-12-01T00:22:44.367Z,47.01
2022-12-01T00:25:11.889Z,46.74
2022-12-01T00:27:38.523Z,47.78
2022-12-01T00:30:05.947Z,48.55
2022-12-01T00:32:32.686Z,48.08
2022-12-01T00:34:59.217Z,47.03
2022-12-01T00:37:25.767Z,47.28
2022-12-01T00:39:52.292Z,46.32
2022-12-01T00:42:20.808Z,48.69
2022-12-01T00:44:47.819Z,48.55
2022-12-01T00:47:14.572Z,47.63
2022-12-01T00:49:41.344Z,47.19
2022-12-01T00:52:08.253Z,48.28
2022-12-01T00:54:34.884Z,46.98
2022-12-01T00:57:01.455Z,49.46
2022-12-01T00:59:27.981Z,49.18
2022-12-01T01:01:54.592Z,48.03
2022-12-01T01:04:21.255Z,47.52
2022-12-01T01:06:48.068Z,48.97
2022-12-01T01:09:15.537Z,49.11
2022-12-01T01:11:41.996Z,48.94
2022-12-01T01:14:08.736Z,47.71
2022-12-01T01:16:35.875Z,48.66
2022-12-01T01:19:02.581Z,48.54
2022-12-01T01:21:29.158Z,49.02
2022-12-01T01:23:55.761Z,49.36
2022-12-01T01:26:23.956Z,47.06
2022-12-01T01:28:51.420Z,48.47
2022-12-01T01:31:20.634Z,47.14
2022-12-01T01:33:47.231Z,47.64
2022-12-01T01:36:14.374Z,47.24
2022-12-01T01:38:41.658Z,47.81
2022-12-01T01:41:08.914Z,48.03
2022-12-01T01:43:56.087Z,47.76
2022-12-01T01:46:24.419Z,46.60
2022-12-01T01:48:54.033Z,47.40
2022-12-01T01:51:32.609Z,47.60
2022-12-01T01:54:03.747Z,47.37
2022-12-01T01:56:30.982Z,48.31
2022-12-01T01:58:59.088Z,49.00
2022-12-01T02:01:25.829Z,48.85
2022-12-01T02:03:54.379Z,49.47
2022-12-01T02:06:22.242Z,48.90
2022-12-01T02:08:49.123Z,47.01
2022-12-01T02:11:18.687Z,48.21
2022-12-01T02:14:04.371Z,47.28
2022-12-01T02:16:43.276Z,47.67
2022-12-01T02:19:35.974Z,48.38
2022-12-01T02:22:23.424Z,49.55
2022-12-01T02:25:02.163Z,50.74
2022-12-01T02:27:44.023Z,49.28
2022-12-01T02:30:17.376Z,50.01
2022-12-01T02:33:05.724Z,50.98
2022-12-01T02:35:38.197Z,48.76
2022-12-01T02:38:10.772Z,49.46
2022-12-01T02:40:40.458Z,49.33
2022-12-01T02:43:13.391Z,49.25
2022-12-01T02:45:47.355Z,49.50
2022-12-01T02:48:27.382Z,49.83
2022-12-01T02:50:57.792Z,50.88
2022-12-01T02:53:24.919Z,49.08
2022-12-01T02:55:52.769Z,51.60
2022-12-01T02:58:20.115Z,51.32
2022-12-01T03:01:14.536Z,50.22
2022-12-01T03:03:52.249Z,50.52
2022-12-01T03:06:18.853Z,50.82
2022-12-01T03:08:57.363Z,51.53
2022-12-01T03:11:34.449Z,50.26
2022-12-01T03:14:09.474Z,50.66
2022-12-01T03:16:47.582Z,51.81
2022-12-01T03:19:28.165Z,50.93
2022-12-01T03:22:14.989Z,51.87
2022-12-01T03:24:45.378Z,50.39
2022-12-01T03:27:15.930Z,51.73
2022-12-01T03:29:45.018Z,50.68
2022-12-01T03:32:21.981Z,49.89
2022-12-01T03:34:56.472Z,50.03
2022-12-01T03:37:32.263Z,49.55
2022-12-01T03:40:01.069Z,50.32
2022-12-01T03:42:37.336Z,50.91
2022-12-01T03:45:15.513Z,49.75
2022-12-01T03:47:42.153Z,49.63
2022-12-01T03:50:14.281Z,49.03
2022-12-01T03:52:59.928Z,50.74
2022-12-01T03:55:29.401Z,51.18
2022-12-01T03:58:13.079Z,50.85
2022-12-01T04:00:40.192Z,49.21
2022-12-01T04:03:07.346Z,50.96
2022-12-01T04:05:35.018Z,48.33
2022-12-01T04:08:02.710Z,53.60
2022-12-01T04:10:29.317Z,54.44
2022-12-01T04:12:59.517Z,51.68
2022-12-01T04:15:27.194Z,51.63
2022-12-01T04:17:53.843Z,52.35
2022-12-01T04:20:20.554Z,51.09
2022-12-01T04:22:47.737Z,51.64
2022-12-01T04:25:14.240Z,51.90
2022-12-01T04:27:40.773Z,53.03
2022-12-01T04:30:08.126Z,53.87
2022-12-01T04:32:39.064Z,53.13
2022-12-01T04:35:06.647Z,53.43
2022-12-01T04:37:33.492Z,52.34
2022-12-01T04:39:59.998Z,51.19
2022-12-01T04:42:26.850Z,51.88
2022-12-01T04:44:53.308Z,54.89
2022-12-01T04:47:19.818Z,55.58
2022-12-01T04:49:46.590Z,54.73
2022-12-01T04:52:13.332Z,53.71
2022-12-01T04:54:39.861Z,55.56
2022-12-01T04:57:06.498Z,54.09
2022-12-01T04:59:33.103Z,55.59
2022-12-01T05:01:59.780Z,54.45
2022-12-01T05:04:26.317Z,54.83
2022-12-01T05:06:54.242Z,56.41
2022-12-01T05:09:21.410Z,55.21
2022-12-01T05:11:48.056Z,55.49
2022-12-01T05:14:14.657Z,54.77
2022-12-01T05:16:41.263Z,54.71
2022-12-01T05:19:26.585Z,53.95
2022-12-01T05:21:53.212Z,52.71
2022-12-01T05:24:20.871Z,54.69
2022-12-01T05:26:47.536Z,52.48
2022-12-01T05:29:14.215Z,54.16
2022-12-01T05:31:41.388Z,52.87
2022-12-01T05:34:09.104Z,53.06
2022-12-01T05:36:36.446Z,51.87
2022-12-01T05:39:03.489Z,51.13
2022-12-01T05:41:30.098Z,52.12
2022-12-01T05:43:56.628Z,53.31
2022-12-01T05:46:23.259Z,50.98
2022-12-01T05:48:49.879Z,50.60
2022-12-01T05:51:17.051Z,51.20
2022-12-01T05:53:44.334Z,50.25
2022-12-01T05:56:10.944Z,50.99
2022-12-01T05:58:37.625Z,51.08
2022-12-01T06:01:04.521Z,51.82
2022-12-01T06:03:31.201Z,50.75
2022-12-01T06:05:57.803Z,51.49
2022-12-01T06:08:24.433Z,49.73
2022-12-01T06:10:51.632Z,50.12
2022-12-01T06:13:18.147Z,50.59
2022-12-01T06:15:44.697Z,50.55
2022-12-01T06:18:11.293Z,48.92
2022-12-01T06:20:37.882Z,49.45
2022-12-01T06:23:04.502Z,50.79
2022-12-01T06:25:31.201Z,49.29
2022-12-01T06:27:58.412Z,49.91
2022-12-01T06:30:25.625Z,47.95
2022-12-01T06:32:52.344Z,48.48
2022-12-01T06:35:19.101Z,48.07
2022-12-01T06:37:45.614Z,49.75
2022-12-01T06:40:12.453Z,49.36
2022-12-01T06:42:39.051Z,48.31
2022-12-01T06:45:05.772Z,47.81
2022-12-01T06:47:32.693Z,47.53
2022-12-01T06:49:59.531Z,48.23
2022-12-01T06:52:26.051Z,47.93
2022-12-01T06:54:52.629Z,47.88
2022-12-01T06:57:19.731Z,50.12
2022-12-01T06:59:47.190Z,48.38
2022-12-01T07:02:14.482Z,48.27
2022-12-01T07:04:41.084Z,48.06
2022-12-01T07:07:07.722Z,49.41
2022-12-01T07:09:34.696Z,50.54
2022-12-01T07:12:01.207Z,50.57
2022-12-01T07:14:27.863Z,50.03
2022-12-01T07:16:55.081Z,48.82
2022-12-01T07:19:22.238Z,50.30
2022-12-01T07:21:49.015Z,50.37
2022-12-01T07:24:15.712Z,51.53
2022-12-01T07:26:42.767Z,51.31
2022-12-01T07:29:10.549Z,50.03
2022-12-01T07:31:37.712Z,50.43
2022-12-01T07:34:04.824Z,51.02
2022-12-01T07:36:31.654Z,50.93
2022-12-01T07:38:58.202Z,51.98
2022-12-01T07:41:24.792Z,50.22
2022-12-01T07:43:51.521Z,51.01
2022-12-01T07:46:23.116Z,52.70
2022-12-01T07:48:50.998Z,53.45
2022-12-01T07:51:18.461Z,50.02
2022-12-01T07:53:46.172Z,49.07
2022-12-01T07:56:13.124Z,51.60
2022-12-01T07:58:39.788Z,52.39
2022-12-01T08:01:12.499Z,51.66
2022-12-01T08:03:39.742Z,51.91
2022-12-01T08:06:07.423Z,52.39
2022-12-01T08:08:35.422Z,52.37
2022-12-01T08:11:03.554Z,51.89
2022-12-01T08:13:30.162Z,51.96
2022-12-01T08:15:56.813Z,49.66
2022-12-01T08:18:24.176Z,51.17
2022-12-01T08:20:50.903Z,51.46
2022-12-01T08:23:17.435Z,53.46
2022-12-01T08:25:43.914Z,51.01
2022-12-01T08:28:10.499Z,50.74
2022-12-01T08:30:37.139Z,52.08
2022-12-01T08:33:03.989Z,52.51
2022-12-01T08:35:30.505Z,51.32
2022-12-01T08:37:57.015Z,50.58
2022-12-01T08:40:23.628Z,52.56
2022-12-01T08:42:52.274Z,52.66
2022-12-01T08:45:19.045Z,52.51
2022-12-01T08:47:45.566Z,53.60
2022-12-01T08:50:12.396Z,52.26
2022-12-01T08:52:39.170Z,52.74
2022-12-01T08:55:06.139Z,53.78
2022-12-01T08:57:32.656Z,52.35
2022-12-01T08:59:59.191Z,52.27
2022-12-01T09:02:25.941Z,52.78
2022-12-01T09:04:52.519Z,54.09
2022-12-01T09:07:24.606Z,54.66
2022-12-01T09:09:53.159Z,53.79
2022-12-01T09:12:19.700Z,53.10
2022-12-01T09:14:48.348Z,52.74
2022-12-01T09:17:15.988Z,52.80
2022-12-01T09:19:42.891Z,52.57
2022-12-01T09:22:10.031Z,52.25
2022-12-01T09:24:36.672Z,53.30
2022-12-01T09:27:03.514Z,53.52
2022-12-01T09:29:30.528Z,54.95
2022-12-01T09:31:58.110Z,56.82
2022-12-01T09:34:25.061Z,54.00
2022-12-01T09:36:54.667Z,54.19
2022-12-01T09:39:21.513Z,51.83
2022-12-01T09:41:57.103Z,51.65
2022-12-01T09:44:26.662Z,53.38
2022-12-01T09:46:57.515Z,53.47
2022-12-01T09:49:44.516Z,54.22
2022-12-01T09:52:12.933Z,53.35
2022-12-01T09:54:40.028Z,51.43
2022-12-01T09:57:06.777Z,51.44
2022-12-01T09:59:37.660Z,51.32
2022-12-01T10:02:18.506Z,52.75
2022-12-01T10:04:48.516Z,50.60
2022-12-01T10:07:22.264Z,49.22
2022-12-01T10:09:49.059Z,50.99
2022-12-01T10:12:18.029Z,50.95
2022-12-01T10:14:46.162Z,49.83
2022-12-01T10:17:20.280Z,51.35
2022-12-01T10:19:52.898Z,50.15
2022-12-01T10:22:19.447Z,49.93
2022-12-01T10:24:48.942Z,48.38
2022-12-01T10:27:15.473Z,49.30
2022-12-01T10:29:48.365Z,50.14
2022-12-01T10:32:14.925Z,48.82
2022-12-01T10:34:43.278Z,49.01
2022-12-01T10:37:18.101Z,48.33
2022-12-01T10:39:47.473Z,48.08
2022-12-01T10:42:14.499Z,48.08
2022-12-01T10:44:42.552Z,46.79
2022-12-01T10:47:20.011Z,46.76
2022-12-01T10:49:46.774Z,45.35
2022-12-01T10:52:25.982Z,43.01
2022-12-01T10:54:52.477Z,37.10
2022-12-01T10:57:19.767Z,35.43
2022-12-01T10:59:58.495Z,35.87
2022-12-01T11:02:27.669Z,35.69
2022-12-01T11:04:57.427Z,36.53
2022-12-01T11:07:27.324Z,36.05
2022-12-01T11:10:00.288Z,33.59
2022-12-01T11:12:27.190Z,33.96
2022-12-01T11:14:55.922Z,35.74
2022-12-01T11:17:22.578Z,35.07
2022-12-01T11:19:49.655Z,34.92
2022-12-01T11:22:25.521Z,33.41
2022-12-01T11:24:55.171Z,30.36
2022-12-01T11:27:26.675Z,32.95
2022-12-01T11:29:57.145Z,34.81
2022-12-01T11:32:25.734Z,32.39
2022-12-01T11:35:00.151Z,33.34
2022-12-01T11:38:06.255Z,33.52
2022-12-01T11:40:38.586Z,32.59
2022-12-01T11:43:07.008Z,31.93
2022-12-01T11:45:37.239Z,33.36
2022-12-01T11:48:23.069Z,32.66
2022-12-01T11:51:04.653Z,31.47
2022-12-01T11:53:34.570Z,31.55
2022-12-01T11:56:20.985Z,31.77
2022-12-01T11:58:49.435Z,31.78
2022-12-01T12:01:20.535Z,30.32
2022-12-01T12:03:59.320Z,27.19
2022-12-01T12:06:46.232Z,25.58
2022-12-01T12:09:40.118Z,25.77
2022-12-01T12:12:10.040Z,28.15
2022-12-01T12:15:05.490Z,27.39
2022-12-01T12:17:46.409Z,27.02
2022-12-01T12:20:24.855Z,24.53
2022-12-01T12:23:03.702Z,23.31
2022-12-01T12:25:43.094Z,23.69
2022-12-01T12:28:12.474Z,22.29
2022-12-01T12:30:59.018Z,21.28
2022-12-01T12:33:44.760Z,21.16
2022-12-01T12:36:28.244Z,20.42
2022-12-01T12:39:03.445Z,19.42
2022-12-01T12:41:36.355Z,17.60
2022-12-01T12:44:02.889Z,18.41
2022-12-01T12:46:43.786Z,18.72
2022-12-01T12:49:20.954Z,17.64
2022-12-01T12:51:54.100Z,17.42
2022-12-01T12:54:44.101Z,17.41
2022-12-01T12:57:25.909Z,17.93
2022-12-01T13:00:12.685Z,18.73
2022-12-01T13:02:50.730Z,18.54
2022-12-01T13:05:23.539Z,18.26
2022-12-01T13:07:54.890Z,17.69
2022-12-01T13:10:22.820Z,17.77
2022-12-01T13:12:56.253Z,18.05
2022-12-01T13:15:23.046Z,17.26
2022-12-01T13:17:53.657Z,15.38
2022-12-01T13:20:24.940Z,15.07
2022-12-01T13:22:52.884Z,15.50
2022-12-01T13:25:26.672Z,15.81
2022-12-01T13:27:55.276Z,16.12
2022-12-01T13:30:25.115Z,17.00
2022-12-01T13:33:01.124Z,15.59
2022-12-01T13:35:30.428Z,15.66
2022-12-01T13:38:13.555Z,16.32
2022-12-01T13:40:40.187Z,16.23
2022-12-01T13:43:16.809Z,14.16
2022-12-01T13:45:43.492Z,14.06
2022-12-01T13:48:27.947Z,13.01
2022-12-01T13:50:59.777Z,13.15
2022-12-01T13:53:30.273Z,13.46
2022-12-01T13:56:02.825Z,12.46
2022-12-01T13:58:32.631Z,13.17
2022-12-01T14:01:17.819Z,13.65
2022-12-01T14:03:52.084Z,13.56
2022-12-01T14:06:50.830Z,14.07
2022-12-01T14:09:32.087Z,15.03
2022-12-01T14:12:24.965Z,15.26
2022-12-01T14:14:59.254Z,15.21
2022-12-01T14:17:38.695Z,15.61
2022-12-01T14:20:08.360Z,15.54
2022-12-01T14:22:35.081Z,13.77
2022-12-01T14:25:02.898Z,13.98
2022-12-01T14:27:40.334Z,13.14
2022-12-01T14:30:25.488Z,13.74
2022-12-01T14:32:52.074Z,13.06
2022-12-01T14:35:18.863Z,13.53
2022-12-01T14:37:48.448Z,14.12
2022-12-01T14:40:22.186Z,15.55
2022-12-01T14:43:10.304Z,15.49
2022-12-01T14:45:46.652Z,16.06
2022-12-01T14:48:16.982Z,15.70
2022-12-01T14:50:53.338Z,16.49
2022-12-01T14:53:19.795Z,16.40
2022-12-01T14:55:51.022Z,16.98
2022-12-01T14:58:20.170Z,17.12
2022-12-01T15:00:56.027Z,16.79
2022-12-01T15:03:28.947Z,18.01
2022-12-01T15:05:58.372Z,17.34
2022-12-01T15:08:41.880Z,17.05
2022-12-01T15:11:20.828Z,18.19
2022-12-01T15:13:48.995Z,18.65
2022-12-01T15:16:26.014Z,18.32
2022-12-01T15:18:53.118Z,18.06
2022-12-01T15:21:28.178Z,19.01
2022-12-01T15:24:03.198Z,18.93
2022-12-01T15:26:37.398Z,19.54
2022-12-01T15:29:25.405Z,21.78
2022-12-01T15:32:05.805Z,20.09
2022-12-01T15:34:38.189Z,18.25
2022-12-01T15:37:07.163Z,18.74
2022-12-01T15:39:41.582Z,19.56
2022-12-01T15:42:21.360Z,19.14
2022-12-01T15:45:00.370Z,20.48
2022-12-01T15:47:45.536Z,20.42
2022-12-01T15:50:31.210Z,20.52
2022-12-01T15:52:59.423Z,21.35
2022-12-01T15:55:28.790Z,20.96
2022-12-01T15:57:56.082Z,20.37
2022-12-01T16:00:23.146Z,21.04
2022-12-01T16:02:54.791Z,20.83
2022-12-01T16:05:26.724Z,21.13
2022-12-01T16:10:40.286Z,20.78
2022-12-01T16:13:25.353Z,20.71
2022-12-01T16:15:52.056Z,20.76
2022-12-01T16:18:26.999Z,20.72
2022-12-01T16:20:54.071Z,20.91
2022-12-01T16:23:24.678Z,20.65
2022-12-01T16:25:51.519Z,20.77
2022-12-01T16:28:26.756Z,21.82
2022-12-01T16:30:53.849Z,20.84
2022-12-01T16:33:25.371Z,21.84
2022-12-01T16:35:52.459Z,21.95
2022-12-01T16:38:22.519Z,23.67
2022-12-01T16:40:50.604Z,26.11
2022-12-01T16:43:18.638Z,26.29
2022-12-01T16:45:46.504Z,25.76
2022-12-01T16:48:13.261Z,26.48
2022-12-01T16:50:39.998Z,29.04
2022-12-01T16:53:06.525Z,37.49
2022-12-01T16:55:44.037Z,34.38
2022-12-01T16:58:10.554Z,30.14
2022-12-01T17:00:37.335Z,26.32
2022-12-01T17:03:04.374Z,24.28
2022-12-01T17:05:31.482Z,24.48
2022-12-01T17:07:58.066Z,24.64
2022-12-01T17:10:25.271Z,25.01
2022-12-01T17:12:51.759Z,24.32
2022-12-01T17:15:18.613Z,23.79
2022-12-01T17:17:45.198Z,24.28
2022-12-01T17:20:12.043Z,24.57
2022-12-01T17:22:38.801Z,23.53
2022-12-01T17:25:06.080Z,23.25
2022-12-01T17:27:32.763Z,24.19
2022-12-01T17:29:59.410Z,24.36
2022-12-01T17:32:26.953Z,25.75
2022-12-01T17:34:53.712Z,25.26
2022-12-01T17:37:21.532Z,25.41
2022-12-01T17:39:49.396Z,24.41
2022-12-01T17:42:16.080Z,24.38
2022-12-01T17:44:42.603Z,24.41
2022-12-01T17:47:09.241Z,24.26
2022-12-01T17:49:36.417Z,26.97
2022-12-01T17:52:03.934Z,26.42
2022-12-01T17:54:30.782Z,25.56
2022-12-01T17:56:57.361Z,23.77
2022-12-01T17:59:24.106Z,25.00
2022-12-01T18:01:50.852Z,23.31
2022-12-01T18:04:17.434Z,25.76
2022-12-01T18:06:46.844Z,25.24
2022-12-01T18:09:15.878Z,24.80
2022-12-01T18:11:42.364Z,23.15
2022-12-01T18:14:09.126Z,23.19
2022-12-01T18:16:35.743Z,23.49
2022-12-01T18:19:02.485Z,24.22
2022-12-01T18:21:29.127Z,24.20
2022-12-01T18:23:57.316Z,24.30
2022-12-01T18:26:24.648Z,24.93
2022-12-01T18:29:01.879Z,25.03
2022-12-01T18:31:29.338Z,25.30
2022-12-01T18:33:58.481Z,24.22
2022-12-01T18:36:25.943Z,24.59
2022-12-01T18:38:53.502Z,24.39
2022-12-01T18:41:20.666Z,24.13
2022-12-01T18:43:47.760Z,23.99
2022-12-01T18:46:15.890Z,23.59
2022-12-01T18:48:44.863Z,23.36
2022-12-01T18:51:11.820Z,22.89
2022-12-01T18:53:38.366Z,23.25
2022-12-01T18:56:06.406Z,22.08
2022-12-01T18:58:33.091Z,22.62
2022-12-01T19:01:01.159Z,22.33
2022-12-01T19:03:31.568Z,22.80
2022-12-01T19:05:58.505Z,22.16
2022-12-01T19:08:25.226Z,20.99
2022-12-01T19:10:59.291Z,20.96
2022-12-01T19:13:25.870Z,18.95
2022-12-01T19:15:52.665Z,21.48
2022-12-01T19:18:19.255Z,20.97
2022-12-01T19:20:45.784Z,21.40
2022-12-01T19:23:12.379Z,22.61
2022-12-01T19:25:39.438Z,22.77
2022-12-01T19:28:06.099Z,23.11
2022-12-01T19:30:32.668Z,23.11
2022-12-01T19:32:59.376Z,21.25
2022-12-01T19:35:26.052Z,20.27
2022-12-01T19:37:52.956Z,20.96
2022-12-01T19:40:19.498Z,20.37
2022-12-01T19:42:46.060Z,20.69
2022-12-01T19:45:12.570Z,19.62
2022-12-01T19:47:39.447Z,19.81
2022-12-01T19:50:06.347Z,20.74
2022-12-01T19:52:34.058Z,20.19
2022-12-01T19:55:01.505Z,19.79
2022-12-01T19:57:28.145Z,21.16
2022-12-01T19:59:54.659Z,22.98
2022-12-01T20:02:27.580Z,24.04
2022-12-01T20:04:56.614Z,23.07
2022-12-01T20:07:23.205Z,21.11
2022-12-01T20:09:50.335Z,22.51
2022-12-01T20:12:17.001Z,23.72
2022-12-01T20:14:43.714Z,24.61
2022-12-01T20:17:15.585Z,25.49
2022-12-01T20:19:42.529Z,25.57
2022-12-01T20:22:09.153Z,23.39
2022-12-01T20:24:39.508Z,27.08
2022-12-01T20:27:06.043Z,28.21
2022-12-01T20:29:32.583Z,27.25
2022-12-01T20:32:03.210Z,27.46
2022-12-01T20:34:32.192Z,29.43
2022-12-01T20:36:59.443Z,30.68
2022-12-01T20:39:27.149Z,32.82
2022-12-01T20:41:54.004Z,31.45
2022-12-01T20:44:20.860Z,31.11
2022-12-01T20:46:47.995Z,31.73
2022-12-01T20:49:15.442Z,32.57
2022-12-01T20:51:41.964Z,31.70
2022-12-01T20:54:28.190Z,32.43
2022-12-01T20:56:55.126Z,32.82
2022-12-01T20:59:21.782Z,33.05
2022-12-01T21:01:48.410Z,32.55
2022-12-01T21:04:14.948Z,32.96
2022-12-01T21:06:42.273Z,32.98
2022-12-01T21:09:08.908Z,33.16
2022-12-01T21:12:00.947Z,36.29
2022-12-01T21:14:35.772Z,37.97
2022-12-01T21:17:20.439Z,38.94
2022-12-01T21:19:49.726Z,40.26
2022-12-01T21:22:16.410Z,38.14
2022-12-01T21:24:44.300Z,42.09
2022-12-01T21:27:15.205Z,42.20
2022-12-01T21:29:44.418Z,41.39
2022-12-01T21:32:15.732Z,42.62
2022-12-01T21:34:44.515Z,41.00
2022-12-01T21:37:19.254Z,39.89
2022-12-01T21:39:48.359Z,41.60
2022-12-01T21:42:18.459Z,41.31
2022-12-01T21:44:45.539Z,41.01
2022-12-01T21:47:22.393Z,41.70
2022-12-01T21:49:53.543Z,41.45
2022-12-01T21:52:22.337Z,41.27
2022-12-01T21:54:49.806Z,41.47
2022-12-01T21:57:29.001Z,41.14
2022-12-01T22:00:05.908Z,40.57
2022-12-01T22:02:52.268Z,40.90
2022-12-01T22:06:06.875Z,40.34
2022-12-01T22:08:35.943Z,40.70
2022-12-01T22:11:12.800Z,40.99
2022-12-01T22:13:48.452Z,40.19
2022-12-01T22:16:14.952Z,40.53
2022-12-01T22:18:43.081Z,40.81
2022-12-01T22:21:21.873Z,39.55
2022-12-01T22:23:49.291Z,40.26
2022-12-01T22:26:20.575Z,41.24
2022-12-01T22:28:52.858Z,43.25
2022-12-01T22:31:20.986Z,43.94
2022-12-01T22:33:48.091Z,43.54
2022-12-01T22:36:22.145Z,45.02
2022-12-01T22:38:49.861Z,45.81
2022-12-01T22:41:19.180Z,46.85
2022-12-01T22:43:54.999Z,47.63
2022-12-01T22:46:26.020Z,49.87
2022-12-01T22:48:57.558Z,50.52
2022-12-01T22:51:26.880Z,48.60
2022-12-01T22:53:57.691Z,47.95
2022-12-01T22:56:30.395Z,51.61
2022-12-01T22:58:57.003Z,54.12
2022-12-01T23:01:29.390Z,55.09
2022-12-01T23:04:11.340Z,53.31
2022-12-01T23:06:58.750Z,57.08
2022-12-01T23:09:36.777Z,56.18
2022-12-01T23:12:12.498Z,55.45
2022-12-01T23:14:43.111Z,57.78
2022-12-01T23:17:30.947Z,58.44
2022-12-01T23:20:20.427Z,57.25
2022-12-01T23:22:47.603Z,59.25
2022-12-01T23:25:18.531Z,59.36
2022-12-01T23:27:46.737Z,60.52
2022-12-01T23:30:14.610Z,59.65
2022-12-01T23:32:41.808Z,60.02
2022-12-01T23:35:15.355Z,60.39
2022-12-01T23:37:43.984Z,61.71
2022-12-01T23:40:20.764Z,62.52
2022-12-01T23:42:47.722Z,61.90
2022-12-01T23:45:20.525Z,61.27
2022-12-01T23:47:47.860Z,62.35
2022-12-01T23:50:23.380Z,63.66
2022-12-01T23:52:50.326Z,64.80
2022-12-01T23:55:22.805Z,65.06
2022-12-01T23:57:50.182Z,63.65
